Time;durP1;ratioP1;P1;durP2;ratioP2;P2;SDS_P1;SDS_P2;PMS_P1;PMS_P2;Temp;Humidity;BMP_temperature;BMP_pressure;BME280_temperature;BME280_humidity;BME280_pressure;Samples;Min_cycle;Max_cycle;Signal;HPM_P1;HPM_P2
2020/12/09 00:00:43;;;;;;;1.60;1.40;;;4.70;98.20;;;;;;5066137;28;20488;-74
2020/12/09 00:03:11;;;;;;;1.60;1.33;;;4.70;98.20;;;;;;5046376;28;20464;-73
2020/12/09 00:05:37;;;;;;;1.60;1.40;;;4.70;98.20;;;;;;5054676;28;20525;-73
2020/12/09 00:08:04;;;;;;;1.60;1.40;;;4.70;98.20;;;;;;5055644;28;20462;-73
2020/12/09 00:10:30;;;;;;;1.60;1.50;;;4.70;98.20;;;;;;5064890;28;20455;-73
2020/12/09 00:12:56;;;;;;;1.60;1.50;;;4.70;98.20;;;;;;5059212;28;21025;-74
2020/12/09 00:15:23;;;;;;;1.60;1.50;;;4.70;98.20;;;;;;5053392;28;20481;-74
2020/12/09 00:17:49;;;;;;;1.70;1.57;;;4.70;98.20;;;;;;5057221;28;20462;-73
2020/12/09 00:20:16;;;;;;;1.60;1.50;;;4.60;98.20;;;;;;5047578;28;20491;-73
2020/12/09 00:22:43;;;;;;;1.63;1.50;;;4.60;98.20;;;;;;5048581;28;20499;-74
2020/12/09 00:25:09;;;;;;;1.60;1.40;;;4.60;98.20;;;;;;5045156;28;20478;-74
2020/12/09 00:27:36;;;;;;;1.60;1.30;;;4.60;98.20;;;;;;5045809;28;20503;-74
2020/12/09 00:30:05;;;;;;;1.60;1.30;;;4.60;98.20;;;;;;5064561;28;20462;-74
2020/12/09 00:32:33;;;;;;;1.60;1.40;;;4.60;98.20;;;;;;5056834;28;20469;-74
2020/12/09 00:35:00;;;;;;;1.67;1.57;;;4.60;98.20;;;;;;5047671;28;20840;-73
2020/12/09 00:37:27;;;;;;;1.60;1.50;;;4.60;98.20;;;;;;5045488;28;20487;-73
2020/12/09 00:39:53;;;;;;;1.70;1.60;;;4.60;98.20;;;;;;5054027;28;20475;-72
2020/12/09 00:42:20;;;;;;;1.60;1.43;;;4.60;98.20;;;;;;5053579;28;20462;-73
2020/12/09 00:44:46;;;;;;;1.60;1.40;;;4.60;98.20;;;;;;5051587;28;20454;-72
2020/12/09 00:47:13;;;;;;;1.60;1.40;;;4.60;98.20;;;;;;5043366;28;20795;-73
2020/12/09 00:52:22;;;;;;;1.60;1.30;;;4.60;98.20;;;;;;5053996;28;20451;-73
2020/12/09 00:54:50;;;;;;;1.60;1.40;;;4.60;98.20;;;;;;5049077;28;20447;-75
2020/12/09 00:57:21;;;;;;;1.60;1.40;;;4.60;98.20;;;;;;5047975;28;20510;-73
2020/12/09 00:59:48;;;;;;;1.60;1.50;;;4.60;98.20;;;;;;5063240;28;20516;-75
2020/12/09 01:02:14;;;;;;;1.60;1.50;;;4.60;98.20;;;;;;5051994;28;20476;-75
2020/12/09 01:04:41;;;;;;;1.60;1.40;;;4.60;98.20;;;;;;5043583;28;20463;-72
2020/12/09 01:07:07;;;;;;;1.60;1.43;;;4.50;98.20;;;;;;5051929;28;20621;-74
2020/12/09 01:09:33;;;;;;;1.60;1.40;;;4.50;98.20;;;;;;5051816;28;20510;-72
2020/12/09 01:12:02;;;;;;;1.60;1.30;;;4.50;98.20;;;;;;5047459;28;20498;-73
2020/12/09 01:14:29;;;;;;;1.60;1.40;;;4.50;98.20;;;;;;5057347;28;20458;-73
2020/12/09 01:16:55;;;;;;;1.60;1.40;;;4.50;98.20;;;;;;5053359;28;20511;-73
2020/12/09 01:19:23;;;;;;;1.83;1.70;;;4.40;98.20;;;;;;5044556;28;20487;-73
2020/12/09 01:21:49;;;;;;;1.70;1.60;;;4.40;98.20;;;;;;5056027;28;20471;-74
2020/12/09 01:24:15;;;;;;;1.60;1.40;;;4.40;98.20;;;;;;5057328;28;20460;-73
2020/12/09 01:26:43;;;;;;;1.60;1.50;;;4.40;98.20;;;;;;5045798;28;20494;-73
2020/12/09 01:29:10;;;;;;;1.60;1.30;;;4.40;98.20;;;;;;5050194;28;20486;-74
2020/12/09 01:31:37;;;;;;;1.60;1.50;;;4.40;98.20;;;;;;5049022;28;20455;-74
2020/12/09 01:34:03;;;;;;;1.63;1.50;;;4.30;98.20;;;;;;5039120;28;20466;-74
2020/12/09 01:36:30;;;;;;;1.60;1.50;;;4.30;98.20;;;;;;5046982;28;20502;-74
2020/12/09 01:38:56;;;;;;;1.60;1.50;;;4.30;98.20;;;;;;5043605;28;20484;-75
2020/12/09 01:41:24;;;;;;;1.60;1.30;;;4.30;98.20;;;;;;5037113;28;20488;-74
2020/12/09 01:43:51;;;;;;;1.60;1.40;;;4.30;98.20;;;;;;5042958;28;20499;-74
2020/12/09 01:46:23;;;;;;;1.77;1.67;;;4.40;98.20;;;;;;5046130;28;20537;-74
2020/12/09 01:48:49;;;;;;;1.60;1.40;;;4.40;98.20;;;;;;5047754;28;20459;-75
2020/12/09 01:51:16;;;;;;;1.60;1.30;;;4.40;98.20;;;;;;5041428;28;20460;-74
2020/12/09 01:53:44;;;;;;;1.60;1.30;;;4.40;98.20;;;;;;5045846;28;20522;-74
2020/12/09 01:56:11;;;;;;;1.60;1.50;;;4.40;98.20;;;;;;5045582;28;20479;-74
2020/12/09 01:58:37;;;;;;;1.60;1.43;;;4.40;98.20;;;;;;5053636;28;20486;-73
2020/12/09 02:01:04;;;;;;;1.60;1.50;;;4.40;98.20;;;;;;5053359;28;20983;-74
2020/12/09 02:03:32;;;;;;;2.20;2.00;;;4.30;98.20;;;;;;5049190;28;20487;-73
2020/12/09 02:05:58;;;;;;;1.60;1.40;;;4.30;98.20;;;;;;5047944;28;20484;-73
2020/12/09 02:08:25;;;;;;;1.67;1.50;;;4.30;98.20;;;;;;5052427;28;20464;-73
2020/12/09 02:10:56;;;;;;;1.60;1.30;;;4.30;98.20;;;;;;5052673;28;20444;-74
2020/12/09 02:13:23;;;;;;;1.60;1.50;;;4.30;98.20;;;;;;5046056;28;20954;-74
2020/12/09 02:15:49;;;;;;;1.60;1.50;;;4.30;98.20;;;;;;5040936;28;20539;-74
2020/12/09 02:18:15;;;;;;;1.60;1.50;;;4.30;98.20;;;;;;5050205;28;20495;-73
2020/12/09 02:20:42;;;;;;;1.60;1.47;;;4.20;98.20;;;;;;5047214;28;20493;-73
2020/12/09 02:23:10;;;;;;;1.80;1.70;;;4.20;98.20;;;;;;5056294;28;20467;-74
2020/12/09 02:25:36;;;;;;;1.63;1.53;;;4.20;98.20;;;;;;5048928;28;20464;-73
2020/12/09 02:28:03;;;;;;;1.60;1.40;;;4.20;98.20;;;;;;5044861;28;20463;-74
2020/12/09 02:30:29;;;;;;;1.60;1.40;;;4.20;98.20;;;;;;5060772;28;20446;-74
2020/12/09 02:32:56;;;;;;;1.60;1.40;;;4.20;98.20;;;;;;5043679;28;20459;-74
2020/12/09 02:35:23;;;;;;;1.60;1.50;;;4.20;98.20;;;;;;5045069;28;21239;-72
2020/12/09 02:37:49;;;;;;;1.60;1.40;;;4.10;98.20;;;;;;5046622;28;20451;-75
2020/12/09 02:40:17;;;;;;;1.60;1.40;;;4.10;98.20;;;;;;5053101;28;20483;-73
2020/12/09 02:42:43;;;;;;;1.60;1.40;;;4.10;98.20;;;;;;5050620;28;20483;-73
2020/12/09 02:45:10;;;;;;;1.60;1.50;;;4.10;98.20;;;;;;5041303;28;20521;-74
2020/12/09 02:47:36;;;;;;;1.60;1.40;;;4.10;98.20;;;;;;5040345;28;20511;-73
2020/12/09 02:50:02;;;;;;;1.60;1.40;;;4.10;98.20;;;;;;5039817;28;20479;-74
2020/12/09 02:52:29;;;;;;;1.60;1.40;;;4.10;98.20;;;;;;5043582;28;20490;-73
2020/12/09 02:54:55;;;;;;;1.60;1.50;;;4.10;98.20;;;;;;5038393;28;20813;-76
2020/12/09 02:57:22;;;;;;;1.60;1.40;;;4.00;98.20;;;;;;5037583;28;20566;-72
2020/12/09 02:59:49;;;;;;;1.60;1.40;;;4.00;98.20;;;;;;5050821;28;20521;-73
2020/12/09 03:02:15;;;;;;;1.60;1.40;;;4.00;98.20;;;;;;5049616;28;20494;-73
2020/12/09 03:04:42;;;;;;;1.60;1.40;;;4.00;98.20;;;;;;5041379;28;20463;-72
2020/12/09 03:07:08;;;;;;;1.60;1.40;;;4.00;98.20;;;;;;5047276;28;20499;-75
2020/12/09 03:09:34;;;;;;;1.60;1.40;;;4.00;98.20;;;;;;5040855;28;20479;-75
2020/12/09 03:12:01;;;;;;;1.60;1.50;;;4.00;98.20;;;;;;5035479;28;20487;-74
2020/12/09 03:14:28;;;;;;;1.60;1.40;;;4.00;98.20;;;;;;5036782;28;20471;-74
2020/12/09 03:16:55;;;;;;;1.60;1.50;;;4.00;98.20;;;;;;5042054;28;20511;-74
2020/12/09 03:19:21;;;;;;;1.70;1.60;;;4.00;98.20;;;;;;5038653;28;20487;-72
2020/12/09 03:21:47;;;;;;;1.60;1.37;;;4.00;98.20;;;;;;5032583;28;20951;-73
2020/12/09 03:24:14;;;;;;;1.60;1.50;;;4.00;98.20;;;;;;5045021;28;20550;-74
2020/12/09 03:26:40;;;;;;;1.63;1.50;;;4.00;98.20;;;;;;5037008;28;20507;-74
2020/12/09 03:29:07;;;;;;;1.60;1.43;;;3.90;98.20;;;;;;5054681;28;20494;-73
2020/12/09 03:31:34;;;;;;;1.60;1.50;;;3.90;98.20;;;;;;5046327;28;20459;-73
2020/12/09 03:34:00;;;;;;;1.60;1.40;;;4.00;98.20;;;;;;5048224;28;20517;-73
2020/12/09 03:36:27;;;;;;;1.70;1.60;;;3.90;98.20;;;;;;5042825;28;20567;-74
2020/12/09 03:38:53;;;;;;;1.60;1.40;;;4.00;98.20;;;;;;5040039;28;20494;-74
2020/12/09 03:41:20;;;;;;;1.60;1.40;;;3.90;98.20;;;;;;5042913;28;20522;-72
2020/12/09 03:43:46;;;;;;;1.70;1.50;;;3.90;98.20;;;;;;5048569;28;20913;-73
2020/12/09 03:46:12;;;;;;;1.70;1.53;;;3.90;98.20;;;;;;5040333;28;20554;-73
2020/12/09 03:48:40;;;;;;;1.60;1.30;;;3.90;98.20;;;;;;5039128;28;20491;-73
2020/12/09 03:51:06;;;;;;;1.60;1.40;;;3.90;98.20;;;;;;5051694;28;20458;-73
2020/12/09 03:53:34;;;;;;;1.60;1.40;;;3.90;98.20;;;;;;5048160;28;20838;-73
2020/12/09 03:56:01;;;;;;;1.60;1.40;;;3.90;98.20;;;;;;5041244;28;20510;-73
2020/12/09 03:58:27;;;;;;;1.60;1.30;;;3.90;98.20;;;;;;5043657;28;20494;-74
2020/12/09 04:00:54;;;;;;;1.60;1.50;;;3.90;98.20;;;;;;5059784;28;20530;-73
2020/12/09 04:03:20;;;;;;;1.60;1.50;;;3.90;98.20;;;;;;5048049;28;20535;-73
2020/12/09 04:05:47;;;;;;;1.70;1.60;;;3.90;98.20;;;;;;5041701;28;21015;-74
2020/12/09 04:08:14;;;;;;;1.60;1.50;;;3.90;98.20;;;;;;5046199;28;20485;-73
2020/12/09 04:10:40;;;;;;;1.60;1.33;;;3.90;98.20;;;;;;5047805;28;20475;-73
2020/12/09 04:13:07;;;;;;;1.60;1.47;;;3.90;98.20;;;;;;5045003;28;20502;-72
2020/12/09 04:15:33;;;;;;;1.70;1.50;;;3.80;98.20;;;;;;5055616;28;20467;-73
2020/12/09 04:17:59;;;;;;;1.60;1.47;;;3.80;98.20;;;;;;5048434;28;20467;-73
2020/12/09 04:20:26;;;;;;;1.87;1.77;;;3.80;98.20;;;;;;5050237;28;20514;-75
2020/12/09 04:22:53;;;;;;;1.60;1.50;;;3.80;98.20;;;;;;5044493;28;20459;-74
2020/12/09 04:25:20;;;;;;;1.87;1.77;;;3.80;98.20;;;;;;5040695;28;20558;-74
2020/12/09 04:27:46;;;;;;;1.60;1.40;;;3.80;98.20;;;;;;5052749;28;20481;-74
2020/12/09 04:30:13;;;;;;;1.90;1.80;;;3.80;98.20;;;;;;5062209;28;20942;-74
2020/12/09 04:32:39;;;;;;;7.87;7.33;;;3.80;98.20;;;;;;5038971;28;20957;-74
2020/12/09 04:35:06;;;;;;;1.73;1.63;;;3.80;98.20;;;;;;5044266;28;20529;-74
2020/12/09 04:37:32;;;;;;;1.60;1.40;;;3.70;98.20;;;;;;5046332;28;20530;-74
2020/12/09 04:40:00;;;;;;;1.60;1.40;;;3.70;98.20;;;;;;5045723;28;20463;-74
2020/12/09 04:42:27;;;;;;;1.60;1.40;;;3.70;98.20;;;;;;5047804;28;20489;-73
2020/12/09 04:44:54;;;;;;;1.60;1.40;;;3.70;98.20;;;;;;5050819;28;20506;-74
2020/12/09 04:47:25;;;;;;;1.60;1.40;;;3.70;98.20;;;;;;5045152;28;20479;-73
2020/12/09 04:50:06;;;;;;;1.80;1.70;;;3.60;98.20;;;;;;5040194;28;20839;-73
2020/12/09 04:52:45;;;;;;;1.63;1.53;;;3.60;98.20;;;;;;5050072;28;20491;-74
2020/12/09 04:55:13;;;;;;;1.60;1.40;;;3.60;98.20;;;;;;5048465;28;20490;-73
2020/12/09 04:57:44;;;;;;;1.70;1.60;;;3.60;98.20;;;;;;5046258;28;20530;-73
2020/12/09 05:00:11;;;;;;;1.60;1.40;;;3.60;98.20;;;;;;5061537;28;20551;-74
2020/12/09 05:02:45;;;;;;;1.70;1.50;;;3.50;98.20;;;;;;5048573;28;20449;-73
2020/12/09 05:05:13;;;;;;;1.63;1.40;;;3.50;98.20;;;;;;5043579;28;20467;-74
2020/12/09 05:07:42;;;;;;;1.60;1.47;;;3.50;98.20;;;;;;5046683;28;20555;-74
2020/12/09 05:10:09;;;;;;;1.63;1.43;;;3.50;98.20;;;;;;5045574;28;20493;-73
2020/12/09 05:12:42;;;;;;;1.60;1.40;;;3.50;98.20;;;;;;5049950;28;20459;-74
2020/12/09 05:15:15;;;;;;;1.63;1.50;;;3.50;98.20;;;;;;5055499;28;21006;-72
2020/12/09 05:17:54;;;;;;;1.60;1.40;;;3.50;98.20;;;;;;5049316;28;20480;-74
2020/12/09 05:20:30;;;;;;;1.63;1.40;;;3.50;98.20;;;;;;5046063;28;20503;-74
2020/12/09 05:22:57;;;;;;;1.60;1.40;;;3.50;98.20;;;;;;5049326;28;20581;-74
2020/12/09 05:25:24;;;;;;;1.70;1.50;;;3.50;98.20;;;;;;5041715;28;20459;-74
2020/12/09 05:27:52;;;;;;;1.63;1.50;;;3.50;98.20;;;;;;5046432;28;20466;-74
2020/12/09 05:30:41;;;;;;;1.70;1.50;;;3.50;98.20;;;;;;5057965;28;20454;-74
2020/12/09 05:33:08;;;;;;;1.70;1.50;;;3.50;98.20;;;;;;5049881;28;20456;-75
2020/12/09 05:35:35;;;;;;;1.70;1.60;;;3.40;98.20;;;;;;5047456;28;20486;-74
2020/12/09 05:38:13;;;;;;;1.60;1.40;;;3.40;98.20;;;;;;5050707;28;20893;-74
2020/12/09 05:40:42;;;;;;;1.60;1.50;;;3.40;98.20;;;;;;5049602;28;20514;-73
2020/12/09 05:43:11;;;;;;;1.70;1.50;;;3.30;98.20;;;;;;5037203;28;20463;-73
2020/12/09 05:45:37;;;;;;;1.60;1.40;;;3.30;98.20;;;;;;5043650;28;20459;-74
2020/12/09 05:48:18;;;;;;;1.63;1.43;;;3.30;98.20;;;;;;5046007;28;20861;-72
2020/12/09 05:50:46;;;;;;;1.67;1.50;;;3.30;98.20;;;;;;5050749;28;20458;-73
2020/12/09 05:53:21;;;;;;;1.70;1.57;;;3.30;98.20;;;;;;5046849;28;22154;-73
2020/12/09 05:55:49;;;;;;;2.60;2.43;;;3.30;98.20;;;;;;5046792;28;20503;-75
2020/12/09 05:58:21;;;;;;;1.70;1.50;;;3.30;98.20;;;;;;5054926;28;20990;-73
2020/12/09 06:01:03;;;;;;;1.70;1.40;;;3.30;98.20;;;;;;5053534;28;20522;-74
2020/12/09 06:03:30;;;;;;;1.60;1.40;;;3.20;98.20;;;;;;5057214;28;20463;-74
2020/12/09 06:06:14;;;;;;;1.60;1.43;;;3.20;98.20;;;;;;5044342;28;20482;-73
2020/12/09 06:08:43;;;;;;;1.70;1.50;;;3.20;98.20;;;;;;5052562;28;20526;-74
2020/12/09 06:11:11;;;;;;;1.70;1.50;;;3.20;98.20;;;;;;5059534;28;20464;-74
2020/12/09 06:13:39;;;;;;;1.70;1.40;;;3.20;98.20;;;;;;5040783;28;20538;-74
2020/12/09 06:16:07;;;;;;;1.60;1.40;;;3.20;98.20;;;;;;5045508;28;20724;-74
2020/12/09 06:18:38;;;;;;;1.70;1.47;;;3.20;98.20;;;;;;5055767;28;20963;-74
2020/12/09 06:21:08;;;;;;;1.70;1.60;;;3.20;98.20;;;;;;5038870;28;20533;-74
2020/12/09 06:23:35;;;;;;;1.77;1.67;;;3.20;98.20;;;;;;5048056;28;20459;-75
2020/12/09 06:26:04;;;;;;;1.73;1.63;;;3.20;98.20;;;;;;5045442;28;20475;-74
2020/12/09 06:28:32;;;;;;;1.67;1.53;;;3.20;98.20;;;;;;5046773;28;20483;-75
2020/12/09 06:31:11;;;;;;;1.70;1.50;;;3.10;98.20;;;;;;5056116;28;20831;-74
2020/12/09 06:33:39;;;;;;;4.20;3.93;;;3.10;98.20;;;;;;5048051;28;20465;-74
2020/12/09 06:36:20;;;;;;;1.67;1.50;;;3.10;98.20;;;;;;5044906;28;20518;-74
2020/12/09 06:39:12;;;;;;;1.60;1.40;;;3.20;98.20;;;;;;5055719;28;20471;-75
2020/12/09 06:41:41;;;;;;;1.63;1.40;;;3.20;98.20;;;;;;5055271;28;20494;-75
2020/12/09 06:44:09;;;;;;;1.60;1.50;;;3.20;98.20;;;;;;5045034;28;20455;-74
2020/12/09 06:46:42;;;;;;;1.60;1.30;;;3.20;98.20;;;;;;5045129;28;20482;-75
2020/12/09 06:49:36;;;;;;;1.60;1.40;;;3.20;98.20;;;;;;5043606;28;20459;-74
2020/12/09 06:52:19;;;;;;;1.60;1.50;;;3.30;98.20;;;;;;5042066;28;20456;-74
2020/12/09 06:54:46;;;;;;;1.70;1.50;;;3.30;98.20;;;;;;5031377;28;20470;-75
2020/12/09 06:57:14;;;;;;;1.70;1.60;;;3.30;98.20;;;;;;5044293;28;20487;-75
2020/12/09 06:59:41;;;;;;;1.60;1.40;;;3.30;98.20;;;;;;5057944;28;20471;-73
2020/12/09 07:02:09;;;;;;;1.63;1.50;;;3.30;98.20;;;;;;5051375;28;20482;-74
2020/12/09 07:05:04;;;;;;;1.70;1.60;;;3.30;98.20;;;;;;5043448;28;20458;-74
2020/12/09 07:07:32;;;;;;;1.60;1.50;;;3.30;98.20;;;;;;5045546;28;20734;-74
2020/12/09 07:09:59;;;;;;;1.70;1.50;;;3.30;98.20;;;;;;5039371;28;20494;-74
2020/12/09 07:12:26;;;;;;;1.60;1.40;;;3.30;98.20;;;;;;5045728;28;20451;-74
2020/12/09 07:14:55;;;;;;;1.60;1.40;;;3.30;98.20;;;;;;5040404;28;20460;-74
2020/12/09 07:17:26;;;;;;;1.60;1.50;;;3.30;98.20;;;;;;5045573;28;20481;-74
2020/12/09 07:19:55;;;;;;;1.90;1.80;;;3.30;98.20;;;;;;5048221;28;20460;-74
2020/12/09 07:22:22;;;;;;;1.60;1.40;;;3.30;98.20;;;;;;5047501;28;20482;-74
2020/12/09 07:24:49;;;;;;;1.60;1.40;;;3.30;98.20;;;;;;5044359;28;20458;-74
2020/12/09 07:27:15;;;;;;;1.63;1.50;;;3.30;98.20;;;;;;5044027;28;21065;-74
2020/12/09 07:29:44;;;;;;;1.60;1.40;;;3.30;98.20;;;;;;5060448;28;20493;-74
2020/12/09 07:32:11;;;;;;;1.60;1.40;;;3.30;98.20;;;;;;5050782;28;20514;-73
2020/12/09 07:34:53;;;;;;;1.60;1.40;;;3.30;98.20;;;;;;5044331;28;20501;-73
2020/12/09 07:37:22;;;;;;;1.60;1.50;;;3.40;98.20;;;;;;5047021;28;20484;-73
2020/12/09 07:39:50;;;;;;;1.60;1.50;;;3.40;98.20;;;;;;5048317;28;20460;-74
2020/12/09 07:42:17;;;;;;;1.63;1.50;;;3.40;98.20;;;;;;5050921;28;20885;-73
2020/12/09 07:44:45;;;;;;;1.70;1.57;;;3.30;98.20;;;;;;5045955;28;20649;-73
2020/12/09 07:47:13;;;;;;;1.60;1.50;;;3.30;98.20;;;;;;5044722;28;20490;-74
2020/12/09 07:49:51;;;;;;;1.60;1.40;;;3.30;98.20;;;;;;5046495;28;20459;-73
2020/12/09 07:52:23;;;;;;;1.60;1.40;;;3.30;98.20;;;;;;5047148;28;20451;-74
2020/12/09 07:54:55;;;;;;;1.60;1.40;;;3.30;98.20;;;;;;5043766;28;20494;-73
2020/12/09 07:57:30;;;;;;;1.60;1.40;;;3.30;98.20;;;;;;5041774;28;20548;-73
2020/12/09 07:59:57;;;;;;;1.60;1.40;;;3.30;98.20;;;;;;5053768;28;20499;-74
2020/12/09 08:02:25;;;;;;;1.70;1.60;;;3.30;98.20;;;;;;5044256;28;20497;-73
2020/12/09 08:05:12;;;;;;;1.60;1.40;;;3.40;98.20;;;;;;5039161;28;20528;-74
2020/12/09 08:08:03;;;;;;;1.70;1.60;;;3.30;98.20;;;;;;5057078;28;20633;-73
2020/12/09 08:10:31;;;;;;;1.63;1.50;;;3.30;98.20;;;;;;5038354;28;20479;-73
2020/12/09 08:13:06;;;;;;;1.80;1.70;;;3.30;98.20;;;;;;5047871;28;20470;-73
2020/12/09 08:15:33;;;;;;;1.60;1.30;;;3.20;98.20;;;;;;5056565;28;20815;-74
2020/12/09 08:18:00;;;;;;;1.60;1.30;;;3.20;98.20;;;;;;5052453;28;20495;-73
2020/12/09 08:20:27;;;;;;;1.70;1.53;;;3.20;98.20;;;;;;5044940;28;20464;-74
2020/12/09 08:22:55;;;;;;;1.67;1.57;;;3.20;98.20;;;;;;5056683;28;20468;-73
2020/12/09 08:25:23;;;;;;;1.73;1.63;;;3.10;98.20;;;;;;5043143;28;20459;-76
2020/12/09 08:27:49;;;;;;;1.60;1.50;;;3.10;98.20;;;;;;5050012;28;20455;-74
2020/12/09 08:30:21;;;;;;;1.80;1.70;;;3.10;98.20;;;;;;5054460;28;20532;-74
2020/12/09 08:33:04;;;;;;;1.70;1.40;;;3.20;98.20;;;;;;5053426;28;20473;-74
2020/12/09 08:35:43;;;;;;;1.60;1.40;;;3.20;98.20;;;;;;5052826;28;20461;-74
2020/12/09 08:38:10;;;;;;;1.73;1.63;;;3.20;98.20;;;;;;5046176;28;20974;-74
2020/12/09 08:40:37;;;;;;;1.67;1.50;;;3.20;98.20;;;;;;5050813;28;20498;-74
2020/12/09 08:43:03;;;;;;;1.70;1.60;;;3.10;98.20;;;;;;5045947;28;20950;-74
2020/12/09 08:45:30;;;;;;;1.70;1.50;;;3.10;98.20;;;;;;5045344;28;20457;-74
2020/12/09 08:47:56;;;;;;;1.70;1.60;;;3.10;98.20;;;;;;5035740;28;20456;-74
2020/12/09 08:50:22;;;;;;;1.70;1.60;;;3.00;98.20;;;;;;5043067;28;20467;-74
2020/12/09 08:52:50;;;;;;;1.70;1.50;;;3.00;98.20;;;;;;5040762;28;20490;-74
2020/12/09 08:55:16;;;;;;;1.67;1.50;;;3.00;98.20;;;;;;5045714;28;20467;-74
2020/12/09 08:57:43;;;;;;;1.70;1.50;;;2.90;98.20;;;;;;5048007;28;20512;-74
2020/12/09 09:00:10;;;;;;;1.60;1.50;;;2.90;98.20;;;;;;5053064;28;20467;-74
2020/12/09 09:02:38;;;;;;;1.67;1.50;;;2.90;98.20;;;;;;5046857;28;20483;-74
2020/12/09 09:05:05;;;;;;;1.63;1.47;;;2.80;98.20;;;;;;5042965;28;20586;-74
2020/12/09 09:07:32;;;;;;;1.70;1.53;;;2.80;98.20;;;;;;5041136;28;20495;-74
2020/12/09 09:09:59;;;;;;;1.70;1.50;;;2.80;98.20;;;;;;5042610;28;20703;-74
2020/12/09 09:12:25;;;;;;;1.80;1.70;;;2.80;98.20;;;;;;5044503;28;20467;-74
2020/12/09 09:14:52;;;;;;;1.60;1.40;;;2.80;98.20;;;;;;5045066;28;20455;-74
2020/12/09 09:17:18;;;;;;;1.70;1.50;;;2.90;98.20;;;;;;5043038;28;20479;-74
2020/12/09 09:19:45;;;;;;;1.70;1.50;;;3.00;98.20;;;;;;5040946;28;20459;-74
2020/12/09 09:22:12;;;;;;;1.70;1.50;;;3.00;98.20;;;;;;5042916;28;20573;-74
2020/12/09 09:24:39;;;;;;;1.80;1.70;;;3.10;98.20;;;;;;5045485;28;20466;-74
2020/12/09 09:27:10;;;;;;;1.70;1.50;;;3.10;98.20;;;;;;5046790;28;20484;-74
2020/12/09 09:29:37;;;;;;;1.70;1.60;;;3.20;98.20;;;;;;5055939;28;20762;-74
2020/12/09 09:32:04;;;;;;;1.60;1.40;;;3.30;98.20;;;;;;5042215;28;20476;-74
2020/12/09 09:34:31;;;;;;;1.63;1.47;;;3.30;98.20;;;;;;5050000;28;20460;-74
2020/12/09 09:36:57;;;;;;;1.70;1.53;;;3.40;98.20;;;;;;5050013;28;21023;-74
2020/12/09 09:39:24;;;;;;;1.60;1.40;;;3.40;98.20;;;;;;5044012;28;20491;-74
2020/12/09 09:41:55;;;;;;;1.60;1.40;;;3.50;98.20;;;;;;5038657;28;20541;-74
2020/12/09 09:44:22;;;;;;;1.67;1.50;;;3.50;98.20;;;;;;5042210;28;20524;-74
2020/12/09 09:46:48;;;;;;;2.17;2.00;;;3.60;98.20;;;;;;5045930;28;20501;-74
2020/12/09 09:49:15;;;;;;;1.60;1.40;;;3.60;98.20;;;;;;5041229;28;20464;-74
2020/12/09 09:51:42;;;;;;;1.70;1.53;;;3.60;98.20;;;;;;5040707;28;20487;-74
2020/12/09 09:54:08;;;;;;;1.60;1.40;;;3.60;98.20;;;;;;5037592;28;20491;-74
2020/12/09 09:56:35;;;;;;;1.60;1.40;;;3.50;98.20;;;;;;5037972;28;20483;-73
2020/12/09 09:59:01;;;;;;;1.60;1.40;;;3.50;98.20;;;;;;5048117;28;21024;-73
2020/12/09 10:01:28;;;;;;;1.87;1.73;;;3.50;98.20;;;;;;5042723;28;20486;-73
2020/12/09 10:03:55;;;;;;;1.63;1.50;;;3.50;98.20;;;;;;5037365;28;20467;-74
2020/12/09 10:06:21;;;;;;;1.70;1.60;;;3.60;98.20;;;;;;5038217;28;20499;-73
2020/12/09 10:08:48;;;;;;;1.60;1.30;;;3.60;98.20;;;;;;5041634;28;20487;-74
2020/12/09 10:11:15;;;;;;;1.60;1.40;;;3.60;98.20;;;;;;5042642;28;20460;-73
2020/12/09 10:13:42;;;;;;;1.60;1.30;;;3.60;98.20;;;;;;5040780;28;20506;-74
2020/12/09 10:16:08;;;;;;;1.60;1.43;;;3.70;98.20;;;;;;5040593;28;20507;-74
2020/12/09 10:18:35;;;;;;;1.60;1.30;;;3.70;98.20;;;;;;5038561;28;20458;-73
2020/12/09 10:21:02;;;;;;;3.93;3.53;;;3.70;98.20;;;;;;5034964;28;20483;-74
2020/12/09 10:23:28;;;;;;;1.60;1.40;;;3.70;98.20;;;;;;5040463;28;20506;-74
2020/12/09 10:25:55;;;;;;;1.60;1.30;;;3.80;98.20;;;;;;5039442;28;20989;-74
2020/12/09 10:28:21;;;;;;;1.60;1.30;;;3.90;98.20;;;;;;5039093;28;20464;-72
2020/12/09 10:30:48;;;;;;;1.60;1.47;;;4.00;98.20;;;;;;5053434;28;20517;-72
2020/12/09 10:33:15;;;;;;;1.70;1.40;;;4.10;98.20;;;;;;5042915;28;20456;-74
2020/12/09 10:35:45;;;;;;;1.60;1.40;;;4.20;98.20;;;;;;5035681;28;20526;-73
2020/12/09 10:38:12;;;;;;;1.60;1.40;;;4.30;98.20;;;;;;5039754;28;20464;-73
2020/12/09 10:40:38;;;;;;;1.60;1.30;;;4.40;98.20;;;;;;5045598;28;21628;-74
2020/12/09 10:43:05;;;;;;;1.60;1.40;;;4.40;98.20;;;;;;5051015;28;20474;-74
2020/12/09 10:45:31;;;;;;;1.70;1.50;;;4.40;98.20;;;;;;5045974;28;20781;-73
2020/12/09 10:47:57;;;;;;;1.60;1.40;;;4.50;98.20;;;;;;5038980;28;20526;-73
2020/12/09 10:50:24;;;;;;;1.60;1.40;;;4.50;98.20;;;;;;5042808;28;20467;-73
2020/12/09 10:52:52;;;;;;;1.60;1.43;;;4.50;98.20;;;;;;5039764;28;20953;-74
2020/12/09 10:55:18;;;;;;;1.60;1.30;;;4.50;98.20;;;;;;5036557;28;20494;-72
2020/12/09 10:57:44;;;;;;;1.60;1.40;;;4.50;98.20;;;;;;5040921;28;20518;-73
2020/12/09 11:00:11;;;;;;;1.60;1.40;;;4.50;98.20;;;;;;5046720;28;20464;-73
2020/12/09 11:02:37;;;;;;;1.60;1.30;;;4.50;98.20;;;;;;5041640;28;20534;-73
2020/12/09 11:05:04;;;;;;;1.60;1.40;;;4.50;98.20;;;;;;5052990;28;20467;-74
2020/12/09 11:07:31;;;;;;;1.60;1.37;;;4.50;98.20;;;;;;5047605;28;20487;-72
2020/12/09 11:09:58;;;;;;;1.60;1.40;;;4.40;98.20;;;;;;5041743;28;20507;-74
2020/12/09 11:12:25;;;;;;;1.60;1.30;;;4.40;98.20;;;;;;5045646;28;20936;-74
2020/12/09 11:14:52;;;;;;;1.60;1.30;;;4.50;98.20;;;;;;5054624;28;20458;-74
2020/12/09 11:17:19;;;;;;;1.60;1.43;;;4.50;98.20;;;;;;5044208;28;20511;-73
2020/12/09 11:19:45;;;;;;;1.60;1.30;;;4.50;98.20;;;;;;5050525;28;20493;-74
2020/12/09 11:22:12;;;;;;;2.27;2.07;;;4.60;98.20;;;;;;5044721;28;20521;-73
2020/12/09 11:24:38;;;;;;;1.60;1.40;;;4.60;98.20;;;;;;5041321;28;21088;-74
2020/12/09 11:27:06;;;;;;;1.60;1.30;;;4.70;98.20;;;;;;5037572;28;20490;-73
2020/12/09 11:29:32;;;;;;;1.60;1.30;;;4.80;98.20;;;;;;5050314;28;20889;-73
2020/12/09 11:31:59;;;;;;;1.60;1.30;;;4.90;98.20;;;;;;5050400;28;20455;-74
2020/12/09 11:34:26;;;;;;;1.60;1.40;;;4.90;98.20;;;;;;5044668;28;20454;-73
2020/12/09 11:36:58;;;;;;;1.60;1.30;;;4.90;98.20;;;;;;5040436;28;20798;-74
2020/12/09 11:39:29;;;;;;;1.60;1.40;;;5.00;98.20;;;;;;5043419;28;20502;-75
2020/12/09 11:41:58;;;;;;;1.60;1.40;;;5.00;98.20;;;;;;5038750;28;20479;-75
2020/12/09 11:44:26;;;;;;;1.60;1.43;;;4.90;98.20;;;;;;5036428;28;20490;-75
2020/12/09 11:46:52;;;;;;;1.60;1.40;;;4.90;98.20;;;;;;5035757;28;20507;-75
2020/12/09 11:49:19;;;;;;;1.60;1.30;;;5.00;98.20;;;;;;5040535;28;20490;-73
2020/12/09 11:51:48;;;;;;;1.60;1.30;;;5.00;98.20;;;;;;5046723;28;20467;-75
2020/12/09 11:54:16;;;;;;;1.60;1.40;;;5.00;98.20;;;;;;5042972;28;20486;-75
2020/12/09 11:56:44;;;;;;;1.60;1.30;;;5.00;98.20;;;;;;5039869;28;20859;-75
2020/12/09 11:59:10;;;;;;;1.60;1.30;;;5.10;98.20;;;;;;5048505;28;20462;-75
2020/12/09 12:01:38;;;;;;;1.70;1.50;;;5.20;98.20;;;;;;5043735;28;20521;-75
2020/12/09 12:04:04;;;;;;;1.60;1.30;;;5.30;98.20;;;;;;5049429;28;21041;-75
2020/12/09 12:06:31;;;;;;;1.60;1.40;;;5.30;98.20;;;;;;5041698;28;20499;-75
2020/12/09 12:08:58;;;;;;;1.60;1.30;;;5.30;98.20;;;;;;5046103;28;20962;-73
2020/12/09 12:11:26;;;;;;;1.70;1.30;;;5.40;98.20;;;;;;5046251;28;20615;-75
2020/12/09 12:13:53;;;;;;;1.60;1.40;;;5.40;98.20;;;;;;5042684;28;20470;-73
2020/12/09 12:16:23;;;;;;;4.03;3.13;;;5.50;98.20;;;;;;5041433;28;20622;-73
2020/12/09 12:18:51;;;;;;;1.60;1.40;;;5.50;98.20;;;;;;5051259;28;20520;-74
2020/12/09 12:21:19;;;;;;;1.60;1.40;;;5.60;98.20;;;;;;5045334;28;20510;-73
2020/12/09 12:23:46;;;;;;;1.60;1.30;;;5.60;98.20;;;;;;5045518;28;20459;-74
2020/12/09 12:26:15;;;;;;;1.70;1.57;;;5.70;98.20;;;;;;5041764;28;20495;-73
2020/12/09 12:28:42;;;;;;;1.60;1.37;;;5.70;98.20;;;;;;5046669;28;20566;-74
2020/12/09 12:31:10;;;;;;;1.60;1.33;;;5.60;98.20;;;;;;5039120;28;20468;-74
2020/12/09 12:33:37;;;;;;;1.70;1.60;;;5.60;98.20;;;;;;5045579;28;20549;-74
2020/12/09 12:36:04;;;;;;;1.60;1.30;;;5.50;98.20;;;;;;5050516;28;20557;-74
2020/12/09 12:38:31;;;;;;;1.60;1.50;;;5.50;98.20;;;;;;5043989;28;20714;-74
2020/12/09 12:40:58;;;;;;;1.53;1.20;;;5.50;98.20;;;;;;5038591;28;20456;-74
2020/12/09 12:43:24;;;;;;;1.60;1.30;;;5.50;98.20;;;;;;5053911;28;20834;-74
2020/12/09 12:45:51;;;;;;;1.60;1.30;;;5.60;98.20;;;;;;5043609;28;20498;-74
2020/12/09 12:48:17;;;;;;;1.60;1.23;;;5.80;98.20;;;;;;5045831;28;20487;-74
2020/12/09 12:50:44;;;;;;;1.60;1.50;;;6.00;98.20;;;;;;5041634;28;20471;-74
2020/12/09 12:53:11;;;;;;;1.60;1.50;;;6.20;98.20;;;;;;5045423;28;20467;-74
2020/12/09 12:55:38;;;;;;;1.60;1.50;;;6.30;98.20;;;;;;5043658;28;20464;-74
2020/12/09 12:58:05;;;;;;;1.60;1.30;;;6.50;98.20;;;;;;5046766;28;20558;-74
2020/12/09 13:00:31;;;;;;;1.60;1.50;;;6.60;98.20;;;;;;5049359;28;20494;-75
2020/12/09 13:02:58;;;;;;;1.60;1.30;;;6.80;98.20;;;;;;5043638;28;20487;-75
2020/12/09 13:05:24;;;;;;;1.60;1.30;;;6.80;98.20;;;;;;5052034;28;21213;-74